PWSweather.com
Personal Weather Stations
Station Observations
KC1FX
To The East Of Littleton, Nh, Bethlehem, NH 03574

To The East Of Littleton, NhBethlehem, NH 03574

Lat: 44.2755, Lon: -71.7128

Elevation: 1279

Station Type: Davis Weather Monitor II

http://kc1fx-weather.info

Latest ConditionsUpdated 6:30:00 PM EDT Thursday, Jul 18, 2019
Currently Today's Max Today's Min Today's Average
Temperature 77.2°F25.1°C 82.5°F28.1°C 60.2°F15.7°C 69.9°F21.1°C
Dew Point 68.9°F20.5°C 73.1°F22.8°C 59.2°F15.1°C 65.3°F18.5°C
Winds Calm Calm 1.0 mph -1.6 kmh - - 0.1 mph 0.2 kmh
Wind Gusts 3.0 mph4.8 kmh 7.0 mph11.3 kmh - -
Humidity 76% 100% 68% 86%
Pressure 29.93 in1013.5 mb 30.01 in1016.3 mb 29.92 in1013.2 mb -
Hour Temp Dew Point Humidity Winds Wind Gusts Pressure Precip Precip Rate Daily Precip Total
06:30 PM 77.2°F25.1°C 68.9°F20.5°C 76% Calm Calm 3.0 mph4.8 kmh 29.93 in1013.5 mb 0.00 in0.0 mm 0.00 in0.0 mm 0.20 in5.1 mm
06:20 PM 77.6°F25.3°C 70.2°F21.2°C 78% Calm Calm 1.0 mph1.6 kmh 29.93 in1013.5 mb 0.00 in0.0 mm 0.00 in0.0 mm 0.20 in5.1 mm
06:10 PM 77.9°F25.5°C 70.5°F21.4°C 78% Calm Calm 1.0 mph1.6 kmh 29.94 in1013.9 mb 0.00 in0.0 mm 0.00 in0.0 mm 0.20 in5.1 mm
06:00 PM 77.8°F25.4°C 70.4°F21.3°C 78% Calm Calm -- 29.93 in1013.5 mb 0.00 in0.0 mm 0.00 in0.0 mm 0.20 in5.1 mm
05:50 PM 77.9°F25.5°C 69.2°F20.7°C 75% Calm Calm -- 29.93 in1013.5 mb 0.00 in0.0 mm 0.00 in0.0 mm 0.20 in5.1 mm
05:40 PM 78.1°F25.6°C 70.2°F21.2°C 77% Calm Calm -- 29.93 in1013.5 mb 0.00 in0.0 mm 0.00 in0.0 mm 0.20 in5.1 mm
05:30 PM 78.3°F25.7°C 70.4°F21.3°C 77% Calm Calm 1.0 mph1.6 kmh 29.94 in1013.9 mb 0.00 in0.0 mm 0.00 in0.0 mm 0.20 in5.1 mm
05:20 PM 78.9°F26.1°C 70.6°F21.4°C 76% Calm Calm 2.0 mph3.2 kmh 29.94 in1013.9 mb 0.00 in0.0 mm 0.00 in0.0 mm 0.20 in5.1 mm
05:10 PM 79.1°F26.2°C 71.2°F21.8°C 77% Calm Calm -- 29.94 in1013.9 mb 0.00 in0.0 mm 0.00 in0.0 mm 0.20 in5.1 mm
05:00 PM 78.8°F26.0°C 72.2°F22.3°C 80% Calm Calm 3.0 mph4.8 kmh 29.94 in1013.9 mb 0.00 in0.0 mm 0.00 in0.0 mm 0.20 in5.1 mm
04:50 PM 79.3°F26.3°C 70.5°F21.4°C 75% Calm Calm 2.0 mph3.2 kmh 29.93 in1013.5 mb 0.00 in0.0 mm 0.00 in0.0 mm 0.20 in5.1 mm
04:40 PM 79.7°F26.5°C 72.2°F22.3°C 78% Calm Calm 1.0 mph1.6 kmh 29.93 in1013.5 mb 0.00 in0.0 mm 0.00 in0.0 mm 0.20 in5.1 mm
04:30 PM 79.8°F26.6°C 71.5°F21.9°C 76% Calm Calm 2.0 mph3.2 kmh 29.93 in1013.5 mb 0.00 in0.0 mm 0.00 in0.0 mm 0.20 in5.1 mm
04:20 PM 79.7°F26.5°C 72.2°F22.3°C 78% Calm Calm 4.0 mph6.4 kmh 29.94 in1013.9 mb 0.00 in0.0 mm 0.00 in0.0 mm 0.20 in5.1 mm
04:10 PM 80.3°F26.8°C 70.2°F21.2°C 71% Calm Calm 2.0 mph3.2 kmh 29.93 in1013.5 mb 0.00 in0.0 mm 0.00 in0.0 mm 0.20 in5.1 mm
04:00 PM 80.9°F27.2°C 69.4°F20.8°C 68% Calm Calm 1.0 mph1.6 kmh 29.93 in1013.5 mb 0.00 in0.0 mm 0.00 in0.0 mm 0.20 in5.1 mm
03:50 PM 81.9°F27.7°C 70.8°F21.6°C 69% 1.0 mph S1.6 kmh S 2.0 mph3.2 kmh 29.94 in1013.9 mb 0.00 in0.0 mm 0.00 in0.0 mm 0.20 in5.1 mm
03:40 PM 82.4°F28.0°C 73.1°F22.8°C 74% Calm Calm 3.0 mph4.8 kmh 29.93 in1013.5 mb 0.00 in0.0 mm 0.00 in0.0 mm 0.20 in5.1 mm
03:30 PM 82.5°F28.1°C 70.9°F21.6°C 68% 1.0 mph SSE1.6 kmh SSE 5.0 mph8.0 kmh 29.92 in1013.2 mb 0.00 in0.0 mm 0.00 in0.0 mm 0.20 in5.1 mm
03:20 PM 82.0°F27.8°C 70.9°F21.6°C 69% Calm Calm 2.0 mph3.2 kmh 29.92 in1013.2 mb 0.00 in0.0 mm 0.00 in0.0 mm 0.20 in5.1 mm
03:10 PM 81.3°F27.4°C 70.7°F21.5°C 70% Calm Calm 2.0 mph3.2 kmh 29.93 in1013.5 mb 0.00 in0.0 mm 0.00 in0.0 mm 0.20 in5.1 mm
03:00 PM 81.0°F27.2°C 72.6°F22.6°C 76% Calm Calm 3.0 mph4.8 kmh 29.94 in1013.9 mb 0.00 in0.0 mm 0.00 in0.0 mm 0.20 in5.1 mm
02:50 PM 81.4°F27.4°C 71.2°F21.8°C 71% 1.0 mph SE1.6 kmh SE 3.0 mph4.8 kmh 29.95 in1014.2 mb 0.00 in0.0 mm 0.00 in0.0 mm 0.20 in5.1 mm
02:40 PM 81.2°F27.3°C 71.9°F22.2°C 74% Calm Calm 3.0 mph4.8 kmh 29.94 in1013.9 mb 0.00 in0.0 mm 0.00 in0.0 mm 0.20 in5.1 mm
02:30 PM 81.2°F27.3°C 70.6°F21.4°C 70% 1.0 mph N1.6 kmh N 4.0 mph6.4 kmh 29.95 in1014.2 mb 0.00 in0.0 mm 0.00 in0.0 mm 0.20 in5.1 mm
02:20 PM 80.2°F26.8°C 70.1°F21.2°C 71% Calm Calm 4.0 mph6.4 kmh 29.95 in1014.2 mb 0.00 in0.0 mm 0.00 in0.0 mm 0.20 in5.1 mm
02:10 PM 79.2°F26.2°C 70.0°F21.1°C 74% Calm Calm 3.0 mph4.8 kmh 29.95 in1014.2 mb 0.00 in0.0 mm 0.00 in0.0 mm 0.20 in5.1 mm
02:00 PM 79.0°F26.1°C 70.7°F21.5°C 76% Calm Calm 5.0 mph8.0 kmh 29.95 in1014.2 mb 0.00 in0.0 mm 0.00 in0.0 mm 0.20 in5.1 mm
01:50 PM 79.0°F26.1°C 71.1°F21.7°C 77% Calm Calm 2.0 mph3.2 kmh 29.95 in1014.2 mb 0.00 in0.0 mm 0.00 in0.0 mm 0.20 in5.1 mm
01:40 PM 79.2°F26.2°C 71.7°F22.1°C 78% Calm Calm 3.0 mph4.8 kmh 29.95 in1014.2 mb 0.00 in0.0 mm 0.00 in0.0 mm 0.20 in5.1 mm
01:30 PM 78.2°F25.7°C 70.3°F21.3°C 77% Calm Calm 2.0 mph3.2 kmh 29.95 in1014.2 mb 0.00 in0.0 mm 0.00 in0.0 mm 0.20 in5.1 mm
01:20 PM 78.1°F25.6°C 71.1°F21.7°C 79% Calm Calm 3.0 mph4.8 kmh 29.96 in1014.6 mb 0.00 in0.0 mm 0.00 in0.0 mm 0.20 in5.1 mm
01:10 PM 78.3°F25.7°C 69.1°F20.6°C 74% Calm Calm 4.0 mph6.4 kmh 29.96 in1014.6 mb 0.00 in0.0 mm 0.00 in0.0 mm 0.20 in5.1 mm
01:00 PM 78.6°F25.9°C 71.1°F21.7°C 78% Calm Calm 3.0 mph4.8 kmh 29.97 in1014.9 mb 0.00 in0.0 mm 0.00 in0.0 mm 0.20 in5.1 mm
12:50 PM 78.8°F26.0°C 71.3°F21.8°C 78% Calm Calm 4.0 mph6.4 kmh 29.98 in1015.2 mb 0.00 in0.0 mm 0.00 in0.0 mm 0.20 in5.1 mm
12:40 PM 78.5°F25.8°C 70.2°F21.2°C 76% 1.0 mph WNW1.6 kmh WNW 5.0 mph8.0 kmh 29.98 in1015.2 mb 0.00 in0.0 mm 0.00 in0.0 mm 0.20 in5.1 mm
12:30 PM 77.3°F25.2°C 67.7°F19.8°C 72% Calm Calm 3.0 mph4.8 kmh 29.99 in1015.6 mb 0.00 in0.0 mm 0.00 in0.0 mm 0.20 in5.1 mm
12:20 PM 76.8°F24.9°C 68.1°F20.1°C 75% 1.0 mph NNW1.6 kmh NNW 4.0 mph6.4 kmh 29.99 in1015.6 mb 0.00 in0.0 mm 0.00 in0.0 mm 0.20 in5.1 mm
12:10 PM 76.1°F24.5°C 68.3°F20.2°C 77% Calm Calm 4.0 mph6.4 kmh 29.99 in1015.6 mb 0.00 in0.0 mm 0.00 in0.0 mm 0.20 in5.1 mm
12:00 PM 77.2°F25.1°C 68.1°F20.1°C 74% Calm Calm 5.0 mph8.0 kmh 29.99 in1015.6 mb 0.00 in0.0 mm 0.00 in0.0 mm 0.20 in5.1 mm
11:50 AM 76.6°F24.8°C 67.9°F19.9°C 75% 1.0 mph N1.6 kmh N 2.0 mph3.2 kmh 30.00 in1015.9 mb 0.00 in0.0 mm 0.00 in0.0 mm 0.20 in5.1 mm
11:40 AM 76.5°F24.7°C 68.3°F20.2°C 76% Calm Calm 2.0 mph3.2 kmh 29.99 in1015.6 mb 0.00 in0.0 mm 0.00 in0.0 mm 0.20 in5.1 mm
11:30 AM 75.5°F24.2°C 66.9°F19.4°C 75% Calm Calm 2.0 mph3.2 kmh 29.99 in1015.6 mb 0.00 in0.0 mm 0.00 in0.0 mm 0.20 in5.1 mm
11:20 AM 74.3°F23.5°C 66.1°F18.9°C 76% Calm Calm 4.0 mph6.4 kmh 29.99 in1015.6 mb 0.00 in0.0 mm 0.00 in0.0 mm 0.20 in5.1 mm
11:10 AM 72.6°F22.6°C 64.5°F18.1°C 76% 1.0 mph SE1.6 kmh SE 2.0 mph3.2 kmh 30.00 in1015.9 mb 0.00 in0.0 mm 0.00 in0.0 mm 0.20 in5.1 mm
11:00 AM 71.9°F22.2°C 64.6°F18.1°C 78% Calm Calm 2.0 mph3.2 kmh 30.00 in1015.9 mb 0.00 in0.0 mm 0.00 in0.0 mm 0.20 in5.1 mm
10:50 AM 72.3°F22.4°C 64.2°F17.9°C 76% Calm Calm 3.0 mph4.8 kmh 30.01 in1016.3 mb 0.00 in0.0 mm 0.00 in0.0 mm 0.20 in5.1 mm
10:40 AM 71.4°F21.9°C 63.3°F17.4°C 76% Calm Calm 7.0 mph11.3 kmh 30.00 in1015.9 mb 0.00 in0.0 mm 0.00 in0.0 mm 0.20 in5.1 mm
10:30 AM 70.6°F21.4°C 63.0°F17.2°C 77% Calm Calm 2.0 mph3.2 kmh 30.00 in1015.9 mb 0.00 in0.0 mm 0.00 in0.0 mm 0.20 in5.1 mm
10:20 AM 70.0°F21.1°C 62.0°F16.7°C 76% Calm Calm 4.0 mph6.4 kmh 29.99 in1015.6 mb 0.00 in0.0 mm 0.00 in0.0 mm 0.20 in5.1 mm
10:10 AM 69.0°F20.6°C 61.0°F16.1°C 76% 1.0 mph N1.6 kmh N 4.0 mph6.4 kmh 30.00 in1015.9 mb 0.00 in0.0 mm 0.00 in0.0 mm 0.20 in5.1 mm
10:00 AM 68.1°F20.1°C 64.0°F17.8°C 87% Calm Calm 2.0 mph3.2 kmh 29.99 in1015.6 mb 0.00 in0.0 mm 0.00 in0.0 mm 0.20 in5.1 mm
09:50 AM 66.6°F19.2°C 63.2°F17.3°C 89% Calm Calm 1.0 mph1.6 kmh 30.00 in1015.9 mb 0.00 in0.0 mm 0.00 in0.0 mm 0.20 in5.1 mm
09:40 AM 65.9°F18.8°C 62.9°F17.2°C 90% Calm Calm 1.0 mph1.6 kmh 30.00 in1015.9 mb 0.00 in0.0 mm 0.00 in0.0 mm 0.20 in5.1 mm
09:30 AM 65.2°F18.4°C 62.5°F16.9°C 91% Calm Calm 1.0 mph1.6 kmh 30.00 in1015.9 mb 0.00 in0.0 mm 0.00 in0.0 mm 0.20 in5.1 mm
09:20 AM 64.7°F18.2°C 62.7°F17.1°C 93% Calm Calm 2.0 mph3.2 kmh 30.01 in1016.3 mb 0.00 in0.0 mm 0.00 in0.0 mm 0.20 in5.1 mm
09:10 AM 64.3°F17.9°C 62.0°F16.7°C 92% Calm Calm 1.0 mph1.6 kmh 30.01 in1016.3 mb 0.00 in0.0 mm 0.00 in0.0 mm 0.20 in5.1 mm
09:00 AM 64.0°F17.8°C 61.7°F16.5°C 92% 1.0 mph W1.6 kmh W 3.0 mph4.8 kmh 30.01 in1016.3 mb 0.00 in0.0 mm 0.00 in0.0 mm 0.20 in5.1 mm
08:50 AM 63.6°F17.6°C 61.3°F16.3°C 92% Calm Calm 1.0 mph1.6 kmh 30.01 in1016.3 mb 0.00 in0.0 mm 0.00 in0.0 mm 0.20 in5.1 mm
08:40 AM 63.1°F17.3°C 60.8°F16.0°C 92% Calm Calm 1.0 mph1.6 kmh 30.01 in1016.3 mb 0.00 in0.0 mm 0.00 in0.0 mm 0.20 in5.1 mm
08:30 AM 62.7°F17.1°C 60.7°F15.9°C 93% Calm Calm 1.0 mph1.6 kmh 30.01 in1016.3 mb 0.00 in0.0 mm 0.00 in0.0 mm 0.20 in5.1 mm
08:20 AM 62.4°F16.9°C 60.8°F16.0°C 94% Calm Calm -- 30.01 in1016.3 mb 0.00 in0.0 mm 0.00 in0.0 mm 0.20 in5.1 mm
08:10 AM 62.3°F16.8°C 60.7°F15.9°C 94% Calm Calm 1.0 mph1.6 kmh 30.01 in1016.3 mb 0.00 in0.0 mm 0.00 in0.0 mm 0.20 in5.1 mm
08:00 AM 62.2°F16.8°C 60.6°F15.9°C 94% Calm Calm -- 30.00 in1015.9 mb 0.00 in0.0 mm 0.00 in0.0 mm 0.20 in5.1 mm
07:50 AM 62.1°F16.7°C 60.5°F15.8°C 94% Calm Calm -- 30.00 in1015.9 mb 0.00 in0.0 mm 0.00 in0.0 mm 0.20 in5.1 mm
07:40 AM 62.1°F16.7°C 59.8°F15.4°C 92% Calm Calm 2.0 mph3.2 kmh 30.01 in1016.3 mb 0.00 in0.0 mm 0.00 in0.0 mm 0.20 in5.1 mm
07:30 AM 62.1°F16.7°C 59.8°F15.4°C 92% Calm Calm 1.0 mph1.6 kmh 30.01 in1016.3 mb 0.00 in0.0 mm 0.00 in0.0 mm 0.20 in5.1 mm
07:20 AM 61.9°F16.6°C 60.3°F15.7°C 94% Calm Calm 1.0 mph1.6 kmh 30.01 in1016.3 mb 0.00 in0.0 mm 0.00 in0.0 mm 0.20 in5.1 mm
07:10 AM 61.3°F16.3°C 60.3°F15.7°C 97% Calm Calm -- 30.00 in1015.9 mb 0.00 in0.0 mm 0.00 in0.0 mm 0.20 in5.1 mm
07:00 AM 60.8°F16.0°C 59.8°F15.4°C 97% Calm Calm -- 30.00 in1015.9 mb 0.00 in0.0 mm 0.00 in0.0 mm 0.20 in5.1 mm
06:50 AM 60.5°F15.8°C 59.5°F15.3°C 97% Calm Calm -- 30.00 in1015.9 mb 0.00 in0.0 mm 0.00 in0.0 mm 0.20 in5.1 mm
06:40 AM 60.3°F15.7°C 59.3°F15.2°C 97% Calm Calm -- 29.99 in1015.6 mb 0.00 in0.0 mm 0.00 in0.0 mm 0.20 in5.1 mm
06:30 AM 60.3°F15.7°C 59.3°F15.2°C 97% Calm Calm -- 29.99 in1015.6 mb 0.00 in0.0 mm 0.00 in0.0 mm 0.20 in5.1 mm
06:20 AM 60.2°F15.7°C 59.2°F15.1°C 97% Calm Calm -- 29.99 in1015.6 mb 0.00 in0.0 mm 0.00 in0.0 mm 0.20 in5.1 mm
06:10 AM 60.3°F15.7°C 59.3°F15.2°C 97% Calm Calm -- 29.98 in1015.2 mb 0.00 in0.0 mm 0.00 in0.0 mm 0.20 in5.1 mm
06:00 AM 60.4°F15.8°C 59.4°F15.2°C 97% Calm Calm -- 29.98 in1015.2 mb 0.00 in0.0 mm 0.00 in0.0 mm 0.20 in5.1 mm
05:50 AM 60.4°F15.8°C 59.4°F15.2°C 97% Calm Calm -- 29.97 in1014.9 mb 0.00 in0.0 mm 0.00 in0.0 mm 0.20 in5.1 mm
05:40 AM 60.5°F15.8°C 59.8°F15.4°C 98% Calm Calm -- 29.97 in1014.9 mb 0.00 in0.0 mm 0.00 in0.0 mm 0.20 in5.1 mm
05:30 AM 60.6°F15.9°C 59.6°F15.3°C 97% Calm Calm -- 29.96 in1014.6 mb 0.00 in0.0 mm 0.00 in0.0 mm 0.20 in5.1 mm
05:20 AM 60.9°F16.1°C 59.9°F15.5°C 97% Calm Calm -- 29.96 in1014.6 mb 0.00 in0.0 mm 0.00 in0.0 mm 0.20 in5.1 mm
05:10 AM 61.0°F16.1°C 60.3°F15.7°C 98% Calm Calm -- 29.96 in1014.6 mb 0.00 in0.0 mm 0.00 in0.0 mm 0.20 in5.1 mm
05:00 AM 61.2°F16.2°C 60.5°F15.8°C 98% Calm Calm -- 29.95 in1014.2 mb 0.00 in0.0 mm 0.00 in0.0 mm 0.20 in5.1 mm
04:50 AM 61.4°F16.3°C 60.7°F15.9°C 98% Calm Calm -- 29.95 in1014.2 mb 0.00 in0.0 mm 0.00 in0.0 mm 0.20 in5.1 mm
04:40 AM 61.5°F16.4°C 60.8°F16.0°C 98% Calm Calm -- 29.95 in1014.2 mb 0.00 in0.0 mm 0.00 in0.0 mm 0.20 in5.1 mm
04:30 AM 61.5°F16.4°C 60.8°F16.0°C 98% Calm Calm -- 29.95 in1014.2 mb 0.00 in0.0 mm 0.00 in0.0 mm 0.20 in5.1 mm
04:20 AM 61.5°F16.4°C 60.8°F16.0°C 98% Calm Calm -- 29.94 in1013.9 mb 0.00 in0.0 mm 0.00 in0.0 mm 0.20 in5.1 mm
04:10 AM 61.5°F16.4°C 60.2°F15.7°C 96% Calm Calm -- 29.95 in1014.2 mb 0.00 in0.0 mm 0.00 in0.0 mm 0.20 in5.1 mm
04:00 AM 61.6°F16.4°C 60.3°F15.7°C 96% Calm Calm -- 29.94 in1013.9 mb 0.00 in0.0 mm 0.00 in0.0 mm 0.20 in5.1 mm
03:50 AM 61.9°F16.6°C 60.3°F15.7°C 94% Calm Calm -- 29.93 in1013.5 mb 0.00 in0.0 mm 0.00 in0.0 mm 0.20 in5.1 mm
03:40 AM 62.1°F16.7°C 60.5°F15.8°C 94% Calm Calm -- 29.93 in1013.5 mb 0.00 in0.0 mm 0.00 in0.0 mm 0.20 in5.1 mm
03:30 AM 62.2°F16.8°C 60.6°F15.9°C 94% Calm Calm -- 29.93 in1013.5 mb 0.00 in0.0 mm 0.00 in0.0 mm 0.20 in5.1 mm
03:20 AM 62.5°F16.9°C 61.2°F16.2°C 96% Calm Calm 2.0 mph3.2 kmh 29.94 in1013.9 mb 0.00 in0.0 mm 0.00 in0.0 mm 0.20 in5.1 mm
03:10 AM 62.7°F17.1°C 61.1°F16.2°C 94% 1.0 mph SE1.6 kmh SE 3.0 mph4.8 kmh 29.95 in1014.2 mb 0.00 in0.0 mm 0.00 in0.0 mm 0.20 in5.1 mm
03:00 AM 63.0°F17.2°C 61.4°F16.3°C 94% Calm Calm 1.0 mph1.6 kmh 29.95 in1014.2 mb 0.00 in0.0 mm 0.00 in0.0 mm 0.20 in5.1 mm
02:50 AM 63.3°F17.4°C 61.7°F16.5°C 94% Calm Calm -- 29.96 in1014.6 mb 0.00 in0.0 mm 0.00 in0.0 mm 0.20 in5.1 mm
02:40 AM 63.6°F17.6°C 62.0°F16.7°C 94% Calm Calm 1.0 mph1.6 kmh 29.95 in1014.2 mb 0.00 in0.0 mm 0.00 in0.0 mm 0.20 in5.1 mm
02:30 AM 64.0°F17.8°C 62.0°F16.7°C 93% Calm Calm -- 29.96 in1014.6 mb 0.00 in0.0 mm 0.00 in0.0 mm 0.20 in5.1 mm
02:20 AM 64.3°F17.9°C 62.3°F16.8°C 93% Calm Calm 1.0 mph1.6 kmh 29.96 in1014.6 mb 0.00 in0.0 mm 0.00 in0.0 mm 0.20 in5.1 mm
02:10 AM 64.6°F18.1°C 62.6°F17.0°C 93% Calm Calm 2.0 mph3.2 kmh 29.96 in1014.6 mb 0.00 in0.0 mm 0.00 in0.0 mm 0.20 in5.1 mm
02:00 AM 64.8°F18.2°C 63.2°F17.3°C 94% 1.0 mph ESE1.6 kmh ESE 3.0 mph4.8 kmh 29.96 in1014.6 mb 0.00 in0.0 mm 0.00 in0.0 mm 0.20 in5.1 mm
01:50 AM 65.1°F18.4°C 65.1°F18.4°C 100% Calm Calm -- 29.96 in1014.6 mb 0.00 in0.0 mm 0.00 in0.0 mm 0.20 in5.1 mm
01:40 AM 65.2°F18.4°C 65.2°F18.4°C 100% Calm Calm -- 29.96 in1014.6 mb 0.00 in0.0 mm 0.00 in0.0 mm 0.20 in5.1 mm
01:30 AM 65.4°F18.6°C 65.4°F18.6°C 100% Calm Calm 1.0 mph1.6 kmh 29.96 in1014.6 mb 0.00 in0.0 mm 0.00 in0.0 mm 0.20 in5.1 mm
01:20 AM 65.5°F18.6°C 65.5°F18.6°C 100% Calm Calm 1.0 mph1.6 kmh 29.95 in1014.2 mb 0.00 in0.0 mm 0.00 in0.0 mm 0.20 in5.1 mm
01:10 AM 65.6°F18.7°C 65.6°F18.7°C 100% Calm Calm -- 29.95 in1014.2 mb 0.00 in0.0 mm 0.00 in0.0 mm 0.20 in5.1 mm
01:00 AM 65.7°F18.7°C 65.7°F18.7°C 100% Calm Calm -- 29.94 in1013.9 mb 0.00 in0.0 mm 0.00 in0.0 mm 0.20 in5.1 mm
12:50 AM 66.0°F18.9°C 66.0°F18.9°C 100% Calm Calm -- 29.94 in1013.9 mb 0.00 in0.0 mm 0.00 in0.0 mm 0.20 in5.1 mm
12:40 AM 66.3°F19.1°C 66.3°F19.1°C 100% Calm Calm 1.0 mph1.6 kmh 29.94 in1013.9 mb 0.00 in0.0 mm 0.00 in0.0 mm 0.20 in5.1 mm
12:30 AM 66.5°F19.2°C 66.5°F19.2°C 100% Calm Calm -- 29.95 in1014.2 mb 0.00 in0.0 mm 0.00 in0.0 mm 0.20 in5.1 mm
12:20 AM 66.8°F19.3°C 66.8°F19.3°C 100% Calm Calm -- 29.94 in1013.9 mb 0.00 in0.0 mm 0.00 in0.0 mm 0.20 in5.1 mm
12:10 AM 67.1°F19.5°C 67.1°F19.5°C 100% Calm Calm 3.0 mph4.8 kmh 29.94 in1013.9 mb 0.00 in0.0 mm 0.00 in0.0 mm 0.20 in5.1 mm
12:00 AM 67.4°F19.7°C 67.4°F19.7°C 100% Calm Calm 1.0 mph1.6 kmh 29.94 in1013.9 mb 0.20 in5.1 mm 0.00 in0.0 mm 0.20 in5.1 mm